Terminal Aerodrome Forecast
Issued by NWS Cleveland, OH

Home | Current Version | Previous Version | Text Only | Print | Product List | Glossary On
Versions: 1 2 3 4 5 6 7 8 9 10 11 12 13 14 15 16 17
000
FTUS41 KCLE 231700
TAFERI
TAF
KERI 231729Z 2318/2418 32012KT P6SM OVC015
      TEMPO 2318/2321 5SM -DZ BKN008
     FM240000 35009KT P6SM BKN030=

USA.gov is the U.S. government's official web portal to all federal, state and local government web resources and services.